createdAt,value
2022-10-18T00:00:36.363Z,75
2022-10-18T00:01:40.925Z,75
2022-10-18T00:02:45.011Z,75
2022-10-18T00:03:49.607Z,75
2022-10-18T00:04:54.191Z,75
2022-10-18T00:05:58.283Z,75
2022-10-18T00:07:02.483Z,76
2022-10-18T00:08:07.263Z,76
2022-10-18T00:09:12.023Z,76
2022-10-18T00:10:16.184Z,76
2022-10-18T00:11:20.783Z,76
2022-10-18T00:12:25.292Z,76
2022-10-18T00:13:29.594Z,76
2022-10-18T00:14:34.015Z,76
2022-10-18T00:15:38.079Z,76
2022-10-18T00:16:42.303Z,76
2022-10-18T00:17:46.855Z,76
2022-10-18T00:18:51.507Z,76
2022-10-18T00:19:56.051Z,76
2022-10-18T00:21:00.763Z,76
2022-10-18T00:22:05.191Z,76
2022-10-18T00:23:09.675Z,76
2022-10-18T00:24:13.851Z,76
2022-10-18T00:25:18.343Z,76
2022-10-18T00:26:22.455Z,76
2022-10-18T00:27:26.527Z,76
2022-10-18T00:28:30.719Z,76
2022-10-18T00:29:34.828Z,76
2022-10-18T00:30:38.968Z,76
2022-10-18T00:31:43.532Z,76
2022-10-18T00:32:48.079Z,76
2022-10-18T00:33:52.215Z,76
2022-10-18T00:34:56.747Z,76
2022-10-18T00:36:00.879Z,76
2022-10-18T00:37:05.407Z,76
2022-10-18T00:38:09.755Z,76
2022-10-18T00:39:14.356Z,76
2022-10-18T00:40:18.776Z,76
2022-10-18T00:41:22.832Z,76
2022-10-18T00:42:26.863Z,76
2022-10-18T00:43:30.867Z,76
2022-10-18T00:44:35.067Z,76
2022-10-18T00:45:39.092Z,77
2022-10-18T00:46:43.412Z,77
2022-10-18T00:47:47.847Z,77
2022-10-18T00:49:59.327Z,77
2022-10-18T00:51:03.691Z,77
2022-10-18T00:52:07.807Z,77
2022-10-18T00:53:17.503Z,77
2022-10-18T00:54:21.448Z,77
2022-10-18T00:55:25.704Z,77
2022-10-18T00:56:30.227Z,77
2022-10-18T00:57:34.415Z,77
2022-10-18T00:58:38.975Z,77
2022-10-18T00:59:43.455Z,77
2022-10-18T01:00:47.682Z,77
2022-10-18T01:01:51.699Z,77
2022-10-18T01:02:55.816Z,77
2022-10-18T01:03:59.851Z,77
2022-10-18T01:05:03.999Z,77
2022-10-18T01:06:08.595Z,77
2022-10-18T01:07:12.643Z,77
2022-10-18T01:08:16.871Z,77
2022-10-18T01:09:31.535Z,77
2022-10-18T01:10:46.231Z,77
2022-10-18T01:11:50.619Z,77
2022-10-18T01:13:03.043Z,77
2022-10-18T01:14:17.803Z,77
2022-10-18T01:15:27.338Z,77
2022-10-18T01:16:31.577Z,77
2022-10-18T01:17:38.843Z,77
2022-10-18T01:18:50.932Z,77
2022-10-18T01:20:03.806Z,77
2022-10-18T01:21:08.355Z,77
2022-10-18T01:22:17.999Z,77
2022-10-18T01:23:25.156Z,77
2022-10-18T01:24:32.675Z,77
2022-10-18T01:25:47.471Z,77
2022-10-18T01:27:02.178Z,77
2022-10-18T01:28:11.388Z,77
2022-10-18T01:29:21.040Z,77
2022-10-18T01:30:30.235Z,77
2022-10-18T01:31:37.434Z,77
2022-10-18T01:32:41.523Z,77
2022-10-18T01:33:48.808Z,77
2022-10-18T01:34:53.334Z,77
2022-10-18T01:35:57.847Z,77
2022-10-18T01:37:10.071Z,76
2022-10-18T01:38:15.063Z,76
2022-10-18T01:39:19.287Z,76
2022-10-18T01:40:28.911Z,76
2022-10-18T01:41:32.971Z,76
2022-10-18T01:42:37.487Z,76
2022-10-18T01:43:42.296Z,76
2022-10-18T01:44:46.783Z,76
2022-10-18T01:45:51.467Z,76
2022-10-18T01:46:55.904Z,76
2022-10-18T01:48:00.066Z,76
2022-10-18T01:49:04.590Z,76
2022-10-18T01:50:08.667Z,76
2022-10-18T01:51:12.871Z,76
2022-10-18T01:52:17.371Z,76
2022-10-18T01:53:21.981Z,76
2022-10-18T01:54:29.007Z,76
2022-10-18T01:55:33.071Z,76
2022-10-18T01:56:42.754Z,76
2022-10-18T01:57:54.970Z,76
2022-10-18T01:59:04.685Z,76
2022-10-18T02:00:11.867Z,76
2022-10-18T02:01:16.350Z,76
2022-10-18T02:02:25.580Z,76
2022-10-18T02:03:40.319Z,76
2022-10-18T02:04:44.791Z,76
2022-10-18T02:05:59.233Z,76
2022-10-18T02:07:06.315Z,76
2022-10-18T02:08:23.094Z,76
2022-10-18T02:09:28.835Z,76
2022-10-18T02:10:35.863Z,76
2022-10-18T02:11:48.251Z,76
2022-10-18T02:12:52.634Z,76
2022-10-18T02:13:57.142Z,76
2022-10-18T02:15:01.394Z,76
2022-10-18T02:16:05.844Z,76
2022-10-18T02:17:09.907Z,76
2022-10-18T02:18:14.268Z,76
2022-10-18T02:19:18.847Z,76
2022-10-18T02:20:28.459Z,76
2022-10-18T02:21:32.967Z,76
2022-10-18T02:22:37.022Z,76
2022-10-18T02:23:41.370Z,76
2022-10-18T02:24:45.819Z,76
2022-10-18T02:25:50.501Z,76
2022-10-18T02:26:54.919Z,76
2022-10-18T02:27:59.098Z,76
2022-10-18T02:29:03.716Z,76
2022-10-18T02:30:08.499Z,76
2022-10-18T02:31:13.079Z,76
2022-10-18T02:32:22.575Z,75
2022-10-18T02:33:27.227Z,75
2022-10-18T02:34:42.044Z,75
2022-10-18T02:35:51.439Z,75
2022-10-18T02:36:55.566Z,75
2022-10-18T02:37:59.695Z,75
2022-10-18T02:39:03.886Z,75
2022-10-18T02:40:08.345Z,75
2022-10-18T02:41:12.517Z,75
2022-10-18T02:42:17.095Z,74
2022-10-18T02:43:21.096Z,74
2022-10-18T02:44:25.314Z,74
2022-10-18T02:45:29.995Z,74
2022-10-18T02:46:34.507Z,74
2022-10-18T02:47:38.604Z,74
2022-10-18T02:48:43.288Z,74
2022-10-18T02:49:47.775Z,74
2022-10-18T02:50:52.251Z,74
2022-10-18T02:51:56.618Z,74
2022-10-18T02:53:01.038Z,74
2022-10-18T02:54:05.214Z,74
2022-10-18T02:55:09.719Z,74
2022-10-18T02:56:13.755Z,74
2022-10-18T02:57:17.894Z,74
2022-10-18T02:58:22.479Z,74
2022-10-18T02:59:27.082Z,74
2022-10-18T03:00:31.755Z,74
2022-10-18T03:01:36.377Z,74
2022-10-18T03:02:40.719Z,74
2022-10-18T03:03:44.926Z,74
2022-10-18T03:04:49.463Z,74
2022-10-18T03:05:53.631Z,74
2022-10-18T03:06:58.170Z,74
2022-10-18T03:08:02.522Z,74
2022-10-18T03:09:06.771Z,74
2022-10-18T03:10:10.847Z,74
2022-10-18T03:11:14.928Z,74
2022-10-18T03:12:19.088Z,74
2022-10-18T03:13:23.675Z,73
2022-10-18T03:14:27.847Z,73
2022-10-18T03:15:32.362Z,73
2022-10-18T03:16:36.939Z,73
2022-10-18T03:17:41.001Z,73
2022-10-18T03:18:45.102Z,73
2022-10-18T03:19:49.274Z,73
2022-10-18T03:20:53.847Z,73
2022-10-18T03:21:58.507Z,73
2022-10-18T03:23:02.897Z,73
2022-10-18T03:24:07.014Z,73
2022-10-18T03:25:11.266Z,73
2022-10-18T03:26:16.026Z,73
2022-10-18T03:27:20.387Z,73
2022-10-18T03:28:24.990Z,73
2022-10-18T03:29:29.595Z,73
2022-10-18T03:30:34.035Z,73
2022-10-18T03:31:37.997Z,73
2022-10-18T03:32:42.307Z,73
2022-10-18T03:33:47.003Z,73
2022-10-18T03:34:51.666Z,73
2022-10-18T03:35:56.245Z,73
2022-10-18T03:37:02.046Z,73
2022-10-18T03:38:05.335Z,73
2022-10-18T03:39:10.206Z,73
2022-10-18T03:40:14.455Z,73
2022-10-18T03:41:19.019Z,73
2022-10-18T03:42:23.520Z,74
2022-10-18T03:43:27.559Z,74
2022-10-18T03:44:31.720Z,74
2022-10-18T03:45:36.306Z,74
2022-10-18T03:46:40.831Z,74
2022-10-18T03:47:45.334Z,74
2022-10-18T03:48:49.654Z,74
2022-10-18T03:49:56.200Z,74
2022-10-18T03:50:58.319Z,74
2022-10-18T03:52:02.951Z,74
2022-10-18T03:53:07.455Z,74
2022-10-18T03:54:12.079Z,74
2022-10-18T03:55:16.600Z,74
2022-10-18T03:56:20.679Z,74
2022-10-18T03:57:25.286Z,74
2022-10-18T03:58:29.954Z,74
2022-10-18T03:59:34.399Z,74
2022-10-18T04:00:39.114Z,74
2022-10-18T04:01:43.728Z,75
2022-10-18T04:02:50.741Z,75
2022-10-18T04:03:52.983Z,75
2022-10-18T04:04:57.669Z,75
2022-10-18T04:06:02.659Z,75
2022-10-18T04:07:07.160Z,75
2022-10-18T04:08:11.656Z,75
2022-10-18T04:09:16.251Z,75
2022-10-18T04:10:20.647Z,75
2022-10-18T04:11:24.879Z,74
2022-10-18T04:12:29.149Z,74
2022-10-18T04:13:33.127Z,74
2022-10-18T04:14:37.736Z,74
2022-10-18T04:15:42.287Z,74
2022-10-18T04:16:46.956Z,74
2022-10-18T04:17:51.619Z,74
2022-10-18T04:18:56.147Z,74
2022-10-18T04:20:00.546Z,73
2022-10-18T04:21:05.199Z,73
2022-10-18T04:22:09.225Z,73
2022-10-18T04:23:13.393Z,73
2022-10-18T04:24:17.451Z,73
2022-10-18T04:25:21.952Z,73
2022-10-18T04:26:26.734Z,73
2022-10-18T04:27:31.552Z,73
2022-10-18T04:28:35.835Z,74
2022-10-18T04:29:40.460Z,74
2022-10-18T04:30:44.918Z,74
2022-10-18T04:31:52.283Z,74
2022-10-18T04:32:56.784Z,74
2022-10-18T04:34:01.305Z,74
2022-10-18T04:35:05.959Z,74
2022-10-18T04:36:10.462Z,74
2022-10-18T04:37:14.604Z,74
2022-10-18T04:38:19.088Z,75
2022-10-18T04:39:23.237Z,75
2022-10-18T04:40:27.793Z,75
2022-10-18T04:41:32.380Z,75
2022-10-18T04:42:37.108Z,75
2022-10-18T04:43:41.677Z,75
2022-10-18T04:44:45.976Z,75
2022-10-18T04:45:50.008Z,75
2022-10-18T04:46:54.336Z,75
2022-10-18T04:47:58.869Z,75
2022-10-18T04:49:03.008Z,75
2022-10-18T04:50:07.493Z,75
2022-10-18T04:51:12.033Z,75
2022-10-18T04:52:16.192Z,75
2022-10-18T04:53:20.487Z,75
2022-10-18T04:54:25.246Z,75
2022-10-18T04:55:29.512Z,76
2022-10-18T04:56:34.142Z,76
2022-10-18T04:57:39.057Z,76
2022-10-18T04:58:43.492Z,76
2022-10-18T04:59:47.772Z,76
2022-10-18T05:00:51.900Z,76
2022-10-18T05:01:56.677Z,76
2022-10-18T05:03:01.264Z,76
2022-10-18T05:04:05.596Z,76
2022-10-18T05:05:10.456Z,76
2022-10-18T05:06:13.734Z,76
2022-10-18T05:07:18.268Z,76
2022-10-18T05:08:22.524Z,76
2022-10-18T05:09:26.584Z,76
2022-10-18T05:10:30.820Z,77
2022-10-18T05:11:35.408Z,77
2022-10-18T05:12:39.982Z,77
2022-10-18T05:13:46.087Z,77
2022-10-18T05:14:50.004Z,77
2022-10-18T05:15:54.164Z,77
2022-10-18T05:16:58.848Z,77
2022-10-18T05:18:03.488Z,77
2022-10-18T05:19:07.952Z,77
2022-10-18T05:21:17.086Z,77
2022-10-18T05:22:21.240Z,77
2022-10-18T05:23:25.412Z,77
2022-10-18T05:24:29.644Z,77
2022-10-18T05:25:34.125Z,77
2022-10-18T05:26:38.164Z,77
2022-10-18T05:27:42.297Z,77
2022-10-18T05:28:46.449Z,77
2022-10-18T05:29:51.048Z,77
2022-10-18T05:30:55.612Z,77
2022-10-18T05:32:02.624Z,77
2022-10-18T05:33:06.885Z,77
2022-10-18T05:34:11.349Z,77
2022-10-18T05:35:15.932Z,77
2022-10-18T05:36:20.488Z,77
2022-10-18T05:37:27.524Z,77
2022-10-18T05:38:29.809Z,77
2022-10-18T05:39:33.828Z,77
2022-10-18T05:40:38.740Z,77
2022-10-18T05:41:43.276Z,77
2022-10-18T05:42:47.697Z,77
2022-10-18T05:43:54.736Z,77
2022-10-18T05:44:59.309Z,77
2022-10-18T05:46:03.953Z,77
2022-10-18T05:47:08.424Z,77
2022-10-18T05:48:12.476Z,77
2022-10-18T05:49:16.549Z,77
2022-10-18T05:50:20.857Z,77
2022-10-18T05:51:25.535Z,78
2022-10-18T05:52:30.294Z,78
2022-10-18T05:53:37.962Z,78
2022-10-18T05:54:38.637Z,78
2022-10-18T05:55:43.253Z,77
2022-10-18T05:56:47.690Z,77
2022-10-18T05:57:51.949Z,77
2022-10-18T05:58:56.577Z,77
2022-10-18T06:00:01.169Z,77
2022-10-18T06:01:05.793Z,77
2022-10-18T06:02:10.363Z,77
2022-10-18T06:03:14.800Z,77
2022-10-18T06:04:18.991Z,77
2022-10-18T06:05:23.112Z,77
2022-10-18T06:06:27.132Z,77
2022-10-18T06:07:31.468Z,77
2022-10-18T06:08:35.381Z,77
2022-10-18T06:09:39.441Z,77
2022-10-18T06:10:43.496Z,77
2022-10-18T06:11:47.496Z,76
2022-10-18T06:12:51.799Z,76
2022-10-18T06:13:56.474Z,76
2022-10-18T06:15:00.940Z,76
2022-10-18T06:16:05.312Z,76
2022-10-18T06:17:09.445Z,76
2022-10-18T06:18:13.980Z,75
2022-10-18T06:19:18.261Z,75
2022-10-18T06:20:22.887Z,75
2022-10-18T06:21:27.465Z,74
2022-10-18T06:22:31.945Z,74
2022-10-18T06:23:36.000Z,74
2022-10-18T06:24:40.081Z,74
2022-10-18T06:25:44.256Z,74
2022-10-18T06:26:48.837Z,74
2022-10-18T06:27:53.294Z,74
2022-10-18T06:28:57.541Z,74
2022-10-18T06:30:02.044Z,74
2022-10-18T06:31:06.647Z,74
2022-10-18T06:32:11.252Z,74
2022-10-18T06:33:15.784Z,74
2022-10-18T06:34:20.288Z,74
2022-10-18T06:35:24.852Z,73
2022-10-18T06:36:29.369Z,73
2022-10-18T06:37:34.286Z,73
2022-10-18T06:38:38.449Z,73
2022-10-18T06:39:43.059Z,73
2022-10-18T06:40:47.640Z,72
2022-10-18T06:41:52.181Z,72
2022-10-18T06:43:00.351Z,72
2022-10-18T06:44:00.428Z,72
2022-10-18T06:45:04.837Z,72
2022-10-18T06:46:09.579Z,71
2022-10-18T06:47:14.088Z,71
2022-10-18T06:49:22.800Z,71
2022-10-18T06:50:26.888Z,71
2022-10-18T06:51:31.283Z,71
2022-10-18T06:52:35.552Z,71
2022-10-18T06:53:43.646Z,71
2022-10-18T06:54:45.467Z,71
2022-10-18T06:55:48.864Z,70
2022-10-18T06:56:53.336Z,70
2022-10-18T06:57:57.380Z,70
2022-10-18T06:59:01.628Z,70
2022-10-18T07:00:06.303Z,70
2022-10-18T07:01:11.508Z,69
2022-10-18T07:02:15.860Z,69
2022-10-18T07:03:20.477Z,69
2022-10-18T07:04:24.872Z,69
2022-10-18T07:05:29.146Z,69
2022-10-18T07:06:33.109Z,69
2022-10-18T07:07:37.252Z,69
2022-10-18T07:08:41.279Z,68
2022-10-18T07:09:45.429Z,68
2022-10-18T07:10:49.550Z,68
2022-10-18T07:11:56.624Z,68
2022-10-18T07:13:19.873Z,67
2022-10-18T07:14:05.301Z,67
2022-10-18T07:15:09.813Z,68
2022-10-18T07:16:15.795Z,67
2022-10-18T07:17:18.472Z,67
2022-10-18T07:18:23.009Z,67
2022-10-18T07:19:27.175Z,67
2022-10-18T07:20:31.311Z,67
2022-10-18T07:21:35.759Z,67
2022-10-18T07:22:39.940Z,67
2022-10-18T07:23:44.124Z,66
2022-10-18T07:24:48.700Z,66
2022-10-18T07:25:53.428Z,66
2022-10-18T07:26:57.728Z,67
2022-10-18T07:28:01.804Z,66
2022-10-18T07:29:05.983Z,66
2022-10-18T07:30:10.079Z,66
2022-10-18T07:31:14.572Z,66
2022-10-18T07:32:18.615Z,66
2022-10-18T07:33:22.725Z,66
2022-10-18T07:34:26.872Z,65
2022-10-18T07:35:31.577Z,65
2022-10-18T07:36:36.079Z,66
2022-10-18T07:37:40.184Z,66
2022-10-18T07:38:44.764Z,66
2022-10-18T07:39:48.811Z,65
2022-10-18T07:40:52.952Z,65
2022-10-18T07:41:57.516Z,66
2022-10-18T07:43:04.133Z,66
2022-10-18T07:44:06.348Z,66
2022-10-18T07:45:10.717Z,66
2022-10-18T07:46:14.908Z,66
2022-10-18T07:47:18.881Z,64
2022-10-18T07:48:23.576Z,64
2022-10-18T07:49:28.275Z,64
2022-10-18T07:50:32.697Z,64
2022-10-18T07:51:37.239Z,64
2022-10-18T07:52:41.299Z,64
2022-10-18T07:53:45.417Z,63
2022-10-18T07:55:54.559Z,63
2022-10-18T07:57:01.872Z,63
2022-10-18T07:58:06.163Z,63
2022-10-18T07:59:10.283Z,63
2022-10-18T08:00:14.839Z,63
2022-10-18T08:01:19.077Z,63
2022-10-18T08:02:23.579Z,63
2022-10-18T08:03:27.731Z,63
2022-10-18T08:04:32.244Z,62
2022-10-18T08:05:36.382Z,62
2022-10-18T08:06:41.023Z,62
2022-10-18T08:07:45.511Z,62
2022-10-18T08:08:50.247Z,62
2022-10-18T08:09:54.698Z,62
2022-10-18T08:10:59.096Z,62
2022-10-18T08:12:03.380Z,61
2022-10-18T08:13:07.471Z,62
2022-10-18T08:14:11.936Z,62
2022-10-18T08:15:16.032Z,61
2022-10-18T08:16:20.276Z,61
2022-10-18T08:17:27.447Z,61
2022-10-18T08:18:31.936Z,60
2022-10-18T08:19:36.027Z,61
2022-10-18T08:20:40.584Z,61
2022-10-18T08:21:44.722Z,61
2022-10-18T08:22:49.371Z,61
2022-10-18T08:23:53.830Z,61
2022-10-18T08:24:58.366Z,61
2022-10-18T08:26:02.671Z,61
2022-10-18T08:27:07.120Z,61
2022-10-18T08:28:11.567Z,60
2022-10-18T08:29:23.144Z,59
2022-10-18T08:30:19.806Z,59
2022-10-18T08:31:24.295Z,59
2022-10-18T08:32:28.491Z,59
2022-10-18T08:33:33.270Z,59
2022-10-18T08:35:42.183Z,59
2022-10-18T08:36:46.312Z,59
2022-10-18T08:37:50.364Z,58
2022-10-18T08:38:54.362Z,59
2022-10-18T08:39:58.514Z,59
2022-10-18T08:41:02.633Z,59
2022-10-18T08:42:17.339Z,59
2022-10-18T08:43:31.664Z,59
2022-10-18T08:44:41.852Z,58
2022-10-18T08:45:45.995Z,59
2022-10-18T08:46:50.432Z,59
2022-10-18T08:48:05.236Z,57
2022-10-18T08:49:09.261Z,57
2022-10-18T08:50:18.525Z,57
2022-10-18T08:51:25.715Z,57
2022-10-18T08:52:29.861Z,58
2022-10-18T08:53:35.143Z,58
2022-10-18T08:54:41.559Z,58
2022-10-18T08:55:56.479Z,57
2022-10-18T08:57:03.587Z,57
2022-10-18T08:58:08.007Z,57
2022-10-18T08:59:20.944Z,57
2022-10-18T09:00:22.988Z,57
2022-10-18T09:01:27.547Z,57
2022-10-18T09:02:36.996Z,56
2022-10-18T09:03:51.830Z,56
2022-10-18T09:05:06.564Z,56
2022-10-18T09:06:22.750Z,56
2022-10-18T09:07:31.023Z,56
2022-10-18T09:08:43.363Z,56
2022-10-18T09:09:55.439Z,57
2022-10-18T09:11:05.056Z,57
2022-10-18T09:12:15.757Z,57
2022-10-18T09:13:30.146Z,57
2022-10-18T09:14:40.107Z,57
2022-10-18T09:15:54.415Z,57
2022-10-18T09:17:01.859Z,57
2022-10-18T09:18:16.540Z,56
2022-10-18T09:19:20.991Z,56
2022-10-18T09:20:30.284Z,56
2022-10-18T09:21:45.047Z,56
2022-10-18T09:22:52.011Z,56
2022-10-18T09:24:06.927Z,56
2022-10-18T09:25:14.030Z,56
2022-10-18T09:26:21.111Z,56
2022-10-18T09:27:25.149Z,55
2022-10-18T09:28:34.605Z,55
2022-10-18T09:29:47.147Z,55
2022-10-18T09:30:57.282Z,55
2022-10-18T09:32:01.055Z,56
2022-10-18T09:33:05.495Z,55
2022-10-18T09:34:17.904Z,56
2022-10-18T09:35:29.984Z,56
2022-10-18T09:36:40.090Z,56
2022-10-18T09:37:44.818Z,56
2022-10-18T09:38:49.364Z,56
2022-10-18T09:39:56.399Z,56
2022-10-18T09:41:08.801Z,56
2022-10-18T09:42:16.242Z,55
2022-10-18T09:43:28.799Z,55
2022-10-18T09:44:36.644Z,55
2022-10-18T09:45:45.788Z,55
2022-10-18T09:46:49.931Z,55
2022-10-18T09:47:54.188Z,55
2022-10-18T09:49:01.690Z,55
2022-10-18T09:50:06.080Z,55
2022-10-18T09:51:15.543Z,55
2022-10-18T09:52:20.035Z,55
2022-10-18T09:53:24.451Z,55
2022-10-18T09:54:33.854Z,55
2022-10-18T09:55:48.392Z,55
2022-10-18T09:56:57.622Z,55
2022-10-18T09:58:12.411Z,55
2022-10-18T09:59:17.015Z,54
2022-10-18T10:00:24.127Z,55
2022-10-18T10:01:36.515Z,54
2022-10-18T10:02:41.105Z,54
2022-10-18T10:03:45.567Z,55
2022-10-18T10:04:50.060Z,55
2022-10-18T10:05:57.375Z,55
2022-10-18T10:07:12.028Z,55
2022-10-18T10:08:21.741Z,54
2022-10-18T10:09:25.679Z,54
2022-10-18T10:10:29.979Z,54
2022-10-18T10:11:34.135Z,54
2022-10-18T10:12:39.392Z,54
2022-10-18T10:13:43.836Z,54
2022-10-18T10:14:48.440Z,54
2022-10-18T10:15:53.143Z,54
2022-10-18T10:16:57.686Z,54
2022-10-18T10:18:02.182Z,54
2022-10-18T10:19:06.648Z,54
2022-10-18T10:20:16.449Z,54
2022-10-18T10:21:28.815Z,54
2022-10-18T10:22:33.255Z,54
2022-10-18T10:23:37.375Z,54
2022-10-18T10:24:52.186Z,54
2022-10-18T10:25:56.810Z,54
2022-10-18T10:27:09.400Z,54
2022-10-18T10:28:21.547Z,54
2022-10-18T10:29:43.897Z,55
2022-10-18T10:30:45.527Z,54
2022-10-18T10:31:49.698Z,54
2022-10-18T10:33:02.310Z,54
2022-10-18T10:34:06.471Z,53
2022-10-18T10:35:17.489Z,53
2022-10-18T10:36:25.911Z,53
2022-10-18T10:37:30.525Z,53
2022-10-18T10:38:34.618Z,53
2022-10-18T10:39:39.315Z,54
2022-10-18T10:40:43.612Z,53
2022-10-18T10:41:47.743Z,53
2022-10-18T10:42:54.443Z,53
2022-10-18T10:44:01.642Z,53
2022-10-18T10:45:07.197Z,53
2022-10-18T10:46:12.547Z,53
2022-10-18T10:47:19.763Z,53
2022-10-18T10:48:33.063Z,53
2022-10-18T10:49:40.008Z,54
2022-10-18T10:50:43.327Z,54
2022-10-18T10:51:57.727Z,53
2022-10-18T10:52:56.781Z,53
2022-10-18T10:54:01.136Z,53
2022-10-18T10:55:30.681Z,53
2022-10-18T10:56:18.575Z,53
2022-10-18T10:57:25.647Z,53
2022-10-18T10:58:30.200Z,53
2022-10-18T10:59:34.528Z,53
2022-10-18T11:00:44.075Z,53
2022-10-18T11:01:48.583Z,53
2022-10-18T11:03:06.080Z,53
2022-10-18T11:04:07.976Z,53
2022-10-18T11:05:22.762Z,53
2022-10-18T11:06:27.227Z,53
2022-10-18T11:07:34.483Z,54
2022-10-18T11:08:41.758Z,53
2022-10-18T11:09:46.095Z,53
2022-10-18T11:10:58.804Z,53
2022-10-18T11:12:05.914Z,53
2022-10-18T11:13:18.530Z,53
2022-10-18T11:14:27.890Z,53
2022-10-18T11:15:32.082Z,53
2022-10-18T11:16:36.683Z,53
2022-10-18T11:17:43.863Z,53
2022-10-18T11:18:51.410Z,53
2022-10-18T11:19:55.883Z,53
2022-10-18T11:21:05.715Z,53
2022-10-18T11:22:15.106Z,53
2022-10-18T11:23:19.207Z,53
2022-10-18T11:24:23.743Z,53
2022-10-18T11:25:27.963Z,52
2022-10-18T11:26:38.148Z,53
2022-10-18T11:27:49.975Z,53
2022-10-18T11:28:57.055Z,53
2022-10-18T11:30:09.059Z,53
2022-10-18T11:31:15.864Z,53
2022-10-18T11:32:25.353Z,53
2022-10-18T11:33:56.681Z,53
2022-10-18T11:34:44.307Z,53
2022-10-18T11:36:02.912Z,53
2022-10-18T11:37:28.404Z,53
2022-10-18T11:38:15.903Z,53
2022-10-18T11:39:30.667Z,53
2022-10-18T11:40:34.844Z,53
2022-10-18T11:41:46.932Z,53
2022-10-18T11:42:56.551Z,53
2022-10-18T11:44:05.723Z,53
2022-10-18T11:45:14.906Z,53
2022-10-18T11:46:24.759Z,53
2022-10-18T11:47:34.830Z,53
2022-10-18T11:48:42.192Z,53
2022-10-18T11:49:56.778Z,53
2022-10-18T11:51:06.695Z,53
2022-10-18T11:52:11.327Z,53
2022-10-18T11:53:23.647Z,54
2022-10-18T11:55:50.134Z,53
2022-10-18T11:56:57.216Z,53
2022-10-18T11:58:06.362Z,53
2022-10-18T11:59:15.503Z,53
2022-10-18T12:01:40.027Z,53
2022-10-18T12:02:52.143Z,53
2022-10-18T12:03:56.299Z,54
2022-10-18T12:05:23.405Z,54
2022-10-18T12:06:07.410Z,53
2022-10-18T12:07:19.833Z,53
2022-10-18T12:08:23.015Z,53
2022-10-18T12:09:27.251Z,54
2022-10-18T12:10:45.920Z,53
2022-10-18T12:11:47.099Z,53
2022-10-18T12:12:55.007Z,53
2022-10-18T12:13:59.506Z,53
2022-10-18T12:15:03.715Z,53
2022-10-18T12:16:18.291Z,53
2022-10-18T12:17:51.123Z,53
2022-10-18T12:18:31.545Z,53
2022-10-18T12:19:35.592Z,54
2022-10-18T12:20:42.571Z,54
2022-10-18T12:21:49.831Z,54
2022-10-18T12:22:54.057Z,53
2022-10-18T12:24:01.213Z,53
2022-10-18T12:25:13.463Z,53
2022-10-18T12:26:17.490Z,53
2022-10-18T12:27:21.611Z,53
2022-10-18T12:28:36.473Z,53
2022-10-18T12:29:51.162Z,53
2022-10-18T12:30:55.762Z,54
2022-10-18T12:32:07.894Z,54
2022-10-18T12:33:28.768Z,54
2022-10-18T12:34:16.529Z,53
2022-10-18T12:35:23.623Z,54
2022-10-18T12:36:27.694Z,54
2022-10-18T12:37:39.934Z,53
2022-10-18T12:38:49.159Z,54
2022-10-18T12:40:09.662Z,53
2022-10-18T12:41:11.646Z,54
2022-10-18T12:42:26.246Z,54
2022-10-18T12:43:30.358Z,54
2022-10-18T12:44:37.065Z,54
2022-10-18T12:45:41.319Z,55
2022-10-18T12:46:53.470Z,55
2022-10-18T12:47:58.056Z,54
2022-10-18T12:49:02.187Z,54
2022-10-18T12:50:06.763Z,54
2022-10-18T12:51:21.498Z,54
2022-10-18T12:52:25.828Z,54
2022-10-18T12:53:30.054Z,54
2022-10-18T12:54:34.242Z,54
2022-10-18T12:55:38.616Z,55
2022-10-18T12:56:45.958Z,54
2022-10-18T12:57:50.014Z,54
2022-10-18T12:58:54.107Z,54
2022-10-18T13:00:08.919Z,54
2022-10-18T13:01:13.010Z,54
2022-10-18T13:02:17.054Z,54
2022-10-18T13:03:21.275Z,54
2022-10-18T13:04:25.334Z,54
2022-10-18T13:05:35.026Z,55
2022-10-18T13:06:44.099Z,55
2022-10-18T13:07:51.283Z,55
2022-10-18T13:08:55.375Z,55
2022-10-18T13:10:10.302Z,55
2022-10-18T13:11:14.707Z,55
2022-10-18T13:12:29.454Z,55
2022-10-18T13:13:39.986Z,54
2022-10-18T13:14:59.032Z,54
2022-10-18T13:16:01.742Z,54
2022-10-18T13:17:16.414Z,54
2022-10-18T13:18:20.498Z,54
2022-10-18T13:19:28.032Z,54
2022-10-18T13:20:43.452Z,54
2022-10-18T13:21:50.599Z,55
2022-10-18T13:23:05.216Z,54
2022-10-18T13:24:09.498Z,54
2022-10-18T13:25:19.082Z,54
2022-10-18T13:26:29.278Z,54
2022-10-18T13:27:41.394Z,54
2022-10-18T13:28:53.696Z,54
2022-10-18T13:30:06.089Z,54
2022-10-18T13:31:15.654Z,54
2022-10-18T13:32:22.838Z,54
2022-10-18T13:33:37.450Z,54
2022-10-18T13:34:41.690Z,54
2022-10-18T13:35:45.702Z,54
2022-10-18T13:36:52.889Z,54
2022-10-18T13:38:05.511Z,54
2022-10-18T13:39:19.806Z,54
2022-10-18T13:40:23.762Z,54
2022-10-18T13:41:29.131Z,54
2022-10-18T13:42:42.751Z,54
2022-10-18T13:43:49.003Z,54
2022-10-18T13:44:54.030Z,54
2022-10-18T13:46:03.582Z,54
2022-10-18T13:47:07.790Z,54
2022-10-18T13:48:11.810Z,54
2022-10-18T13:49:15.877Z,54
2022-10-18T13:50:28.124Z,54
2022-10-18T13:51:32.726Z,54
2022-10-18T13:52:47.511Z,54
2022-10-18T13:53:57.135Z,54
2022-10-18T13:55:09.313Z,54
2022-10-18T13:56:18.498Z,54
2022-10-18T13:57:28.218Z,54
2022-10-18T13:58:48.685Z,54
2022-10-18T13:59:55.142Z,54
2022-10-18T14:01:07.413Z,54
2022-10-18T14:02:30.933Z,54
2022-10-18T14:03:44.364Z,54
2022-10-18T14:04:32.854Z,54
2022-10-18T14:05:42.038Z,54
2022-10-18T14:06:51.672Z,53
2022-10-18T14:07:55.921Z,54
2022-10-18T14:09:09.328Z,54
2022-10-18T14:10:19.690Z,54
2022-10-18T14:11:26.206Z,54
2022-10-18T14:12:40.658Z,54
2022-10-18T14:13:44.686Z,54
2022-10-18T14:14:50.022Z,54
2022-10-18T14:16:04.438Z,54
2022-10-18T14:17:15.485Z,54
2022-10-18T14:18:27.094Z,54
2022-10-18T14:19:32.782Z,54
2022-10-18T14:20:49.293Z,54
2022-10-18T14:21:46.690Z,54
2022-10-18T14:22:55.950Z,54
2022-10-18T14:24:10.619Z,54
2022-10-18T14:25:14.766Z,54
2022-10-18T14:26:24.274Z,54
2022-10-18T14:27:28.402Z,54
2022-10-18T14:28:48.331Z,54
2022-10-18T14:29:39.805Z,54
2022-10-18T14:30:44.886Z,54
2022-10-18T14:31:55.146Z,54
2022-10-18T14:32:59.566Z,54
2022-10-18T14:34:03.829Z,54
2022-10-18T14:35:30.922Z,54
2022-10-18T14:36:18.862Z,54
2022-10-18T14:37:23.042Z,54
2022-10-18T14:38:32.393Z,54
2022-10-18T14:39:36.763Z,54
2022-10-18T14:40:40.921Z,54
2022-10-18T14:41:45.058Z,54
2022-10-18T14:42:52.171Z,54
2022-10-18T14:43:56.292Z,54
2022-10-18T14:46:20.106Z,54
2022-10-18T14:47:24.401Z,54
2022-10-18T14:48:29.014Z,54
2022-10-18T14:49:33.474Z,55
2022-10-18T14:50:37.565Z,55
2022-10-18T14:51:41.653Z,55
2022-10-18T14:52:45.804Z,55
2022-10-18T14:53:50.466Z,55
2022-10-18T14:54:55.266Z,55
2022-10-18T14:56:00.262Z,55
2022-10-18T14:57:07.578Z,55
2022-10-18T14:58:14.673Z,55
2022-10-18T14:59:18.849Z,55
2022-10-18T15:00:27.949Z,55
2022-10-18T15:01:34.739Z,55
2022-10-18T15:02:38.754Z,55
2022-10-18T15:03:42.797Z,56
2022-10-18T15:04:46.906Z,55
2022-10-18T15:05:56.074Z,56
2022-10-18T15:07:00.125Z,56
2022-10-18T15:08:04.225Z,56
2022-10-18T15:09:08.302Z,56
2022-10-18T15:10:12.404Z,56
2022-10-18T15:11:17.102Z,56
2022-10-18T15:12:21.635Z,56
2022-10-18T15:13:25.633Z,56
2022-10-18T15:14:29.824Z,56
2022-10-18T15:15:33.837Z,56
2022-10-18T15:16:37.997Z,56
2022-10-18T15:17:42.063Z,56
2022-10-18T15:18:46.130Z,56
2022-10-18T15:20:03.272Z,56
2022-10-18T15:21:04.946Z,57
2022-10-18T15:22:31.139Z,57
2022-10-18T15:23:23.796Z,57
2022-10-18T15:24:27.846Z,57
2022-10-18T15:25:38.045Z,57
2022-10-18T15:26:42.561Z,57
2022-10-18T15:27:46.863Z,57
2022-10-18T15:28:50.973Z,57
2022-10-18T15:29:54.874Z,57
2022-10-18T15:30:59.071Z,57
2022-10-18T15:32:03.101Z,57
2022-10-18T15:33:17.902Z,57
2022-10-18T15:34:21.923Z,57
2022-10-18T15:35:26.622Z,57
2022-10-18T15:36:30.153Z,57
2022-10-18T15:37:34.508Z,57
2022-10-18T15:38:38.750Z,57
2022-10-18T15:39:42.849Z,57
2022-10-18T15:40:46.993Z,57
2022-10-18T15:41:51.082Z,57
2022-10-18T15:42:55.547Z,57
2022-10-18T15:43:59.782Z,57
2022-10-18T15:45:12.433Z,57
2022-10-18T15:46:24.630Z,57
2022-10-18T15:47:32.114Z,58
2022-10-18T15:48:36.046Z,57
2022-10-18T15:49:40.614Z,57
2022-10-18T15:50:46.238Z,57
2022-10-18T15:51:53.311Z,58
2022-10-18T15:52:57.414Z,58